Jatai, Brazil
Current Conditions -  °F | °C
As of 7:00 AM on Friday 31 Oct 2014 (Local Time) from SBGO Reporting Station
Broken Clouds Broken Clouds  
Wind Chill: 20°   Ceiling: 9000
Heat Index: 20°   Visibility: 6mi
Dew Point: 18°   Wind: 5mph
Humidity: 88%   Direction: 280°W
Pressure: 30"   Gusts: NA
Location:  17.88°S, 51.71°W
Report Text: SBGO 310900Z 28004KT 9999 FEW035 BKN090 20/18 Q1016
Loading
Personal Weather Stations






























Interactive Weather Map
Tropical Storm Tracking
New forecast layout! Learn more

10-Day Weather Forecast

Advertisements
Track Severe Weather on mobile